sensor_id;sensor_type;location;lat;lon;timestamp;temperature;humidity
41944;DHT22;27636;52.610;13.244;2023-06-10T00:04:16;14.70;99.90
41944;DHT22;27636;52.610;13.244;2023-06-10T00:09:22;14.60;99.90
41944;DHT22;27636;52.610;13.244;2023-06-10T00:14:26;14.50;99.90
41944;DHT22;27636;52.610;13.244;2023-06-10T00:19:30;14.50;99.90
41944;DHT22;27636;52.610;13.244;2023-06-10T00:24:34;14.40;99.90
41944;DHT22;27636;52.610;13.244;2023-06-10T00:29:38;14.40;99.90
41944;DHT22;27636;52.610;13.244;2023-06-10T00:34:42;14.30;99.90
41944;DHT22;27636;52.610;13.244;2023-06-10T00:39:47;14.30;99.90
41944;DHT22;27636;52.610;13.244;2023-06-10T00:44:50;14.20;99.90
41944;DHT22;27636;52.610;13.244;2023-06-10T00:49:55;14.30;99.90
41944;DHT22;27636;52.610;13.244;2023-06-10T00:55:02;14.20;99.90
41944;DHT22;27636;52.610;13.244;2023-06-10T01:00:07;14.20;99.90
41944;DHT22;27636;52.610;13.244;2023-06-10T01:05:13;14.20;99.90
41944;DHT22;27636;52.610;13.244;2023-06-10T01:10:22;14.20;99.90
41944;DHT22;27636;52.610;13.244;2023-06-10T01:15:29;14.10;99.90
41944;DHT22;27636;52.610;13.244;2023-06-10T01:20:33;14.00;99.90
41944;DHT22;27636;52.610;13.244;2023-06-10T01:25:41;14.00;99.90
41944;DHT22;27636;52.610;13.244;2023-06-10T01:30:52;14.00;99.90
41944;DHT22;27636;52.610;13.244;2023-06-10T01:36:00;14.00;99.90
41944;DHT22;27636;52.610;13.244;2023-06-10T01:41:06;13.80;99.90
41944;DHT22;27636;52.610;13.244;2023-06-10T01:46:10;13.80;99.90
41944;DHT22;27636;52.610;13.244;2023-06-10T01:51:14;13.90;99.90
41944;DHT22;27636;52.610;13.244;2023-06-10T01:56:19;13.80;99.90
41944;DHT22;27636;52.610;13.244;2023-06-10T02:01:24;13.70;99.90
41944;DHT22;27636;52.610;13.244;2023-06-10T02:06:28;13.70;99.90
41944;DHT22;27636;52.610;13.244;2023-06-10T02:11:33;13.50;99.90
41944;DHT22;27636;52.610;13.244;2023-06-10T02:16:36;13.50;99.90
41944;DHT22;27636;52.610;13.244;2023-06-10T02:21:41;13.60;99.90
41944;DHT22;27636;52.610;13.244;2023-06-10T02:26:47;13.50;99.90
41944;DHT22;27636;52.610;13.244;2023-06-10T02:31:52;13.50;99.90
41944;DHT22;27636;52.610;13.244;2023-06-10T02:36:56;13.50;99.90
41944;DHT22;27636;52.610;13.244;2023-06-10T02:42:01;13.30;99.90
41944;DHT22;27636;52.610;13.244;2023-06-10T02:47:05;13.40;99.90
41944;DHT22;27636;52.610;13.244;2023-06-10T02:52:11;13.30;99.90
41944;DHT22;27636;52.610;13.244;2023-06-10T02:57:17;13.30;99.90
41944;DHT22;27636;52.610;13.244;2023-06-10T03:02:20;13.40;99.90
41944;DHT22;27636;52.610;13.244;2023-06-10T03:07:27;13.40;99.90
41944;DHT22;27636;52.610;13.244;2023-06-10T03:12:32;13.50;99.90
41944;DHT22;27636;52.610;13.244;2023-06-10T03:17:36;13.50;99.90
41944;DHT22;27636;52.610;13.244;2023-06-10T03:22:40;13.50;99.90
41944;DHT22;27636;52.610;13.244;2023-06-10T03:27:47;13.50;99.90
41944;DHT22;27636;52.610;13.244;2023-06-10T03:32:51;13.60;99.90
41944;DHT22;27636;52.610;13.244;2023-06-10T03:37:57;13.70;99.90
41944;DHT22;27636;52.610;13.244;2023-06-10T03:43:03;13.90;99.90
41944;DHT22;27636;52.610;13.244;2023-06-10T03:48:08;13.90;99.90
41944;DHT22;27636;52.610;13.244;2023-06-10T03:53:19;14.10;99.90
41944;DHT22;27636;52.610;13.244;2023-06-10T03:58:25;14.10;99.90
41944;DHT22;27636;52.610;13.244;2023-06-10T04:03:29;14.30;99.90
41944;DHT22;27636;52.610;13.244;2023-06-10T04:08:34;14.40;99.90
41944;DHT22;27636;52.610;13.244;2023-06-10T04:13:38;14.60;99.90
41944;DHT22;27636;52.610;13.244;2023-06-10T04:18:43;14.70;99.90
41944;DHT22;27636;52.610;13.244;2023-06-10T04:23:48;15.00;99.90
41944;DHT22;27636;52.610;13.244;2023-06-10T04:28:54;15.20;99.90
41944;DHT22;27636;52.610;13.244;2023-06-10T04:33:59;15.60;99.90
41944;DHT22;27636;52.610;13.244;2023-06-10T04:39:05;15.70;99.90
41944;DHT22;27636;52.610;13.244;2023-06-10T04:44:14;16.10;99.90
41944;DHT22;27636;52.610;13.244;2023-06-10T04:49:18;16.00;99.90
41944;DHT22;27636;52.610;13.244;2023-06-10T04:54:22;16.70;99.90
41944;DHT22;27636;52.610;13.244;2023-06-10T04:59:27;18.70;99.90
41944;DHT22;27636;52.610;13.244;2023-06-10T05:04:31;19.60;99.90
41944;DHT22;27636;52.610;13.244;2023-06-10T05:09:35;20.20;99.90
41944;DHT22;27636;52.610;13.244;2023-06-10T05:14:41;19.60;99.90
41944;DHT22;27636;52.610;13.244;2023-06-10T05:19:46;18.60;99.90
41944;DHT22;27636;52.610;13.244;2023-06-10T05:24:50;19.00;99.90
41944;DHT22;27636;52.610;13.244;2023-06-10T05:29:55;18.70;99.90
41944;DHT22;27636;52.610;13.244;2023-06-10T05:34:59;17.60;99.90
41944;DHT22;27636;52.610;13.244;2023-06-10T05:40:05;19.40;99.90
41944;DHT22;27636;52.610;13.244;2023-06-10T05:45:11;19.50;99.90
41944;DHT22;27636;52.610;13.244;2023-06-10T05:50:15;20.90;99.90
41944;DHT22;27636;52.610;13.244;2023-06-10T05:55:18;21.90;99.40
41944;DHT22;27636;52.610;13.244;2023-06-10T06:00:23;21.70;99.90
41944;DHT22;27636;52.610;13.244;2023-06-10T06:05:27;22.40;97.20
41944;DHT22;27636;52.610;13.244;2023-06-10T06:17:36;20.90;98.70
41944;DHT22;27636;52.610;13.244;2023-06-10T06:22:39;22.60;96.20
41944;DHT22;27636;52.610;13.244;2023-06-10T06:27:43;23.20;94.30
41944;DHT22;27636;52.610;13.244;2023-06-10T06:32:49;23.80;92.90
41944;DHT22;27636;52.610;13.244;2023-06-10T06:37:52;25.20;90.40
41944;DHT22;27636;52.610;13.244;2023-06-10T06:43:01;25.30;87.90
41944;DHT22;27636;52.610;13.244;2023-06-10T06:48:15;24.20;88.40
41944;DHT22;27636;52.610;13.244;2023-06-10T06:53:19;23.30;91.70
41944;DHT22;27636;52.610;13.244;2023-06-10T06:58:22;22.60;92.40
41944;DHT22;27636;52.610;13.244;2023-06-10T07:03:27;23.70;91.70
41944;DHT22;27636;52.610;13.244;2023-06-10T07:08:30;26.10;87.20
41944;DHT22;27636;52.610;13.244;2023-06-10T07:13:34;25.30;84.80
41944;DHT22;27636;52.610;13.244;2023-06-10T07:18:39;25.00;86.90
41944;DHT22;27636;52.610;13.244;2023-06-10T07:23:43;25.20;84.40
41944;DHT22;27636;52.610;13.244;2023-06-10T07:28:46;25.10;84.30
41944;DHT22;27636;52.610;13.244;2023-06-10T07:33:51;24.20;86.80
41944;DHT22;27636;52.610;13.244;2023-06-10T07:38:55;22.90;90.90
41944;DHT22;27636;52.610;13.244;2023-06-10T07:43:59;23.30;90.50
41944;DHT22;27636;52.610;13.244;2023-06-10T07:49:07;23.40;89.40
41944;DHT22;27636;52.610;13.244;2023-06-10T07:54:10;23.90;87.90
41944;DHT22;27636;52.610;13.244;2023-06-10T07:59:16;24.00;89.20
41944;DHT22;27636;52.610;13.244;2023-06-10T08:04:21;24.30;86.10
41944;DHT22;27636;52.610;13.244;2023-06-10T08:09:24;25.90;82.60
41944;DHT22;27636;52.610;13.244;2023-06-10T08:14:28;27.30;77.40
41944;DHT22;27636;52.610;13.244;2023-06-10T08:19:33;28.40;73.00
41944;DHT22;27636;52.610;13.244;2023-06-10T08:24:37;28.90;70.20
41944;DHT22;27636;52.610;13.244;2023-06-10T08:29:40;27.80;72.10
41944;DHT22;27636;52.610;13.244;2023-06-10T08:34:45;27.30;76.20
41944;DHT22;27636;52.610;13.244;2023-06-10T08:39:49;26.20;77.00
41944;DHT22;27636;52.610;13.244;2023-06-10T08:44:53;26.80;78.00
41944;DHT22;27636;52.610;13.244;2023-06-10T08:50:03;25.90;78.60
41944;DHT22;27636;52.610;13.244;2023-06-10T08:55:12;25.50;79.90
41944;DHT22;27636;52.610;13.244;2023-06-10T09:00:17;25.30;80.30
41944;DHT22;27636;52.610;13.244;2023-06-10T09:05:22;24.40;83.60
41944;DHT22;27636;52.610;13.244;2023-06-10T09:10:26;23.90;86.50
41944;DHT22;27636;52.610;13.244;2023-06-10T09:15:30;23.90;87.50
41944;DHT22;27636;52.610;13.244;2023-06-10T09:20:35;23.70;88.10
41944;DHT22;27636;52.610;13.244;2023-06-10T09:25:39;23.90;87.90
41944;DHT22;27636;52.610;13.244;2023-06-10T09:30:42;23.50;89.50
41944;DHT22;27636;52.610;13.244;2023-06-10T09:35:48;23.30;89.70
41944;DHT22;27636;52.610;13.244;2023-06-10T09:40:53;23.20;90.40
41944;DHT22;27636;52.610;13.244;2023-06-10T09:45:57;23.50;91.00
41944;DHT22;27636;52.610;13.244;2023-06-10T09:51:08;23.30;91.00
41944;DHT22;27636;52.610;13.244;2023-06-10T09:56:12;23.10;91.70
41944;DHT22;27636;52.610;13.244;2023-06-10T10:01:15;22.90;91.40
41944;DHT22;27636;52.610;13.244;2023-06-10T10:06:21;22.40;91.70
41944;DHT22;27636;52.610;13.244;2023-06-10T10:11:24;22.00;93.30
41944;DHT22;27636;52.610;13.244;2023-06-10T10:16:33;22.00;93.20
41944;DHT22;27636;52.610;13.244;2023-06-10T10:21:44;22.10;93.20
41944;DHT22;27636;52.610;13.244;2023-06-10T10:26:50;21.90;93.40
41944;DHT22;27636;52.610;13.244;2023-06-10T10:31:56;21.60;94.00
41944;DHT22;27636;52.610;13.244;2023-06-10T10:37:05;21.20;95.80
41944;DHT22;27636;52.610;13.244;2023-06-10T10:42:09;20.90;96.90
41944;DHT22;27636;52.610;13.244;2023-06-10T10:47:13;20.70;98.20
41944;DHT22;27636;52.610;13.244;2023-06-10T10:52:19;20.90;98.70
41944;DHT22;27636;52.610;13.244;2023-06-10T10:57:23;21.00;98.40
41944;DHT22;27636;52.610;13.244;2023-06-10T11:02:35;21.30;97.10
41944;DHT22;27636;52.610;13.244;2023-06-10T11:07:52;21.50;97.00
41944;DHT22;27636;52.610;13.244;2023-06-10T11:12:58;21.90;96.00
41944;DHT22;27636;52.610;13.244;2023-06-10T11:18:09;22.40;94.50
41944;DHT22;27636;52.610;13.244;2023-06-10T11:23:30;23.20;93.80
41944;DHT22;27636;52.610;13.244;2023-06-10T11:28:36;24.00;93.50
41944;DHT22;27636;52.610;13.244;2023-06-10T11:33:41;24.80;92.20
41944;DHT22;27636;52.610;13.244;2023-06-10T11:38:46;25.00;91.50
41944;DHT22;27636;52.610;13.244;2023-06-10T11:43:49;24.70;90.70
41944;DHT22;27636;52.610;13.244;2023-06-10T11:48:54;24.50;90.40
41944;DHT22;27636;52.610;13.244;2023-06-10T11:53:59;24.30;91.00
41944;DHT22;27636;52.610;13.244;2023-06-10T11:59:04;24.40;85.80
41944;DHT22;27636;52.610;13.244;2023-06-10T12:04:09;23.40;90.50
41944;DHT22;27636;52.610;13.244;2023-06-10T12:09:22;23.10;92.10
41944;DHT22;27636;52.610;13.244;2023-06-10T12:14:52;23.30;92.10
41944;DHT22;27636;52.610;13.244;2023-06-10T12:20:05;23.60;91.90
41944;DHT22;27636;52.610;13.244;2023-06-10T12:25:11;24.10;90.20
41944;DHT22;27636;52.610;13.244;2023-06-10T12:30:19;24.30;89.50
41944;DHT22;27636;52.610;13.244;2023-06-10T12:35:24;24.40;88.10
41944;DHT22;27636;52.610;13.244;2023-06-10T12:40:33;24.70;88.60
41944;DHT22;27636;52.610;13.244;2023-06-10T12:45:38;24.90;86.40
41944;DHT22;27636;52.610;13.244;2023-06-10T12:50:51;25.30;84.30
41944;DHT22;27636;52.610;13.244;2023-06-10T12:55:57;25.80;79.90
41944;DHT22;27636;52.610;13.244;2023-06-10T13:01:01;27.00;78.00
41944;DHT22;27636;52.610;13.244;2023-06-10T13:06:05;28.60;71.00
41944;DHT22;27636;52.610;13.244;2023-06-10T13:11:11;29.00;69.30
41944;DHT22;27636;52.610;13.244;2023-06-10T13:16:14;28.70;69.60
41944;DHT22;27636;52.610;13.244;2023-06-10T13:21:18;29.40;69.70
41944;DHT22;27636;52.610;13.244;2023-06-10T13:26:23;28.80;70.50
41944;DHT22;27636;52.610;13.244;2023-06-10T13:31:26;28.30;72.40
41944;DHT22;27636;52.610;13.244;2023-06-10T13:36:30;29.00;72.10
41944;DHT22;27636;52.610;13.244;2023-06-10T13:41:35;29.00;69.00
41944;DHT22;27636;52.610;13.244;2023-06-10T13:46:38;28.90;66.50
41944;DHT22;27636;52.610;13.244;2023-06-10T13:51:42;28.60;66.00
41944;DHT22;27636;52.610;13.244;2023-06-10T13:56:46;28.90;66.00
41944;DHT22;27636;52.610;13.244;2023-06-10T14:01:50;28.80;64.20
41944;DHT22;27636;52.610;13.244;2023-06-10T14:06:53;28.80;64.00
41944;DHT22;27636;52.610;13.244;2023-06-10T14:11:58;28.70;65.50
41944;DHT22;27636;52.610;13.244;2023-06-10T14:17:02;28.80;62.70
41944;DHT22;27636;52.610;13.244;2023-06-10T14:22:07;29.40;64.40
41944;DHT22;27636;52.610;13.244;2023-06-10T14:27:12;29.10;61.80
41944;DHT22;27636;52.610;13.244;2023-06-10T14:32:16;29.70;60.80
41944;DHT22;27636;52.610;13.244;2023-06-10T14:37:19;29.90;56.40
41944;DHT22;27636;52.610;13.244;2023-06-10T14:42:24;29.10;55.00
41944;DHT22;27636;52.610;13.244;2023-06-10T14:47:28;29.00;55.30
41944;DHT22;27636;52.610;13.244;2023-06-10T14:52:31;29.20;54.40
41944;DHT22;27636;52.610;13.244;2023-06-10T14:57:36;29.30;54.80
41944;DHT22;27636;52.610;13.244;2023-06-10T15:02:39;29.80;52.10
41944;DHT22;27636;52.610;13.244;2023-06-10T15:07:43;29.70;53.10
41944;DHT22;27636;52.610;13.244;2023-06-10T15:12:48;29.60;53.80
41944;DHT22;27636;52.610;13.244;2023-06-10T15:17:58;29.40;53.40
41944;DHT22;27636;52.610;13.244;2023-06-10T15:23:02;29.70;52.20
41944;DHT22;27636;52.610;13.244;2023-06-10T15:28:07;29.60;52.40
41944;DHT22;27636;52.610;13.244;2023-06-10T15:33:11;29.50;50.70
41944;DHT22;27636;52.610;13.244;2023-06-10T15:38:15;29.10;51.60
41944;DHT22;27636;52.610;13.244;2023-06-10T15:43:20;29.20;51.80
41944;DHT22;27636;52.610;13.244;2023-06-10T15:48:23;29.20;51.20
41944;DHT22;27636;52.610;13.244;2023-06-10T15:53:27;29.30;51.30
41944;DHT22;27636;52.610;13.244;2023-06-10T15:58:32;29.10;51.30
41944;DHT22;27636;52.610;13.244;2023-06-10T16:03:35;29.00;52.50
41944;DHT22;27636;52.610;13.244;2023-06-10T16:08:39;28.70;54.30
41944;DHT22;27636;52.610;13.244;2023-06-10T16:13:45;28.30;54.70
41944;DHT22;27636;52.610;13.244;2023-06-10T16:18:49;28.20;54.00
41944;DHT22;27636;52.610;13.244;2023-06-10T16:23:52;28.90;52.20
41944;DHT22;27636;52.610;13.244;2023-06-10T16:28:57;28.70;52.60
41944;DHT22;27636;52.610;13.244;2023-06-10T16:34:00;28.40;51.70
41944;DHT22;27636;52.610;13.244;2023-06-10T16:39:04;28.60;52.10
41944;DHT22;27636;52.610;13.244;2023-06-10T16:44:09;28.30;50.80
41944;DHT22;27636;52.610;13.244;2023-06-10T16:49:12;28.00;52.60
41944;DHT22;27636;52.610;13.244;2023-06-10T16:54:16;28.10;52.60
41944;DHT22;27636;52.610;13.244;2023-06-10T16:59:21;28.00;49.60
41944;DHT22;27636;52.610;13.244;2023-06-10T17:04:25;28.10;48.10
41944;DHT22;27636;52.610;13.244;2023-06-10T17:09:29;28.10;47.10
41944;DHT22;27636;52.610;13.244;2023-06-10T17:14:34;27.90;47.50
41944;DHT22;27636;52.610;13.244;2023-06-10T17:19:38;27.60;47.30
41944;DHT22;27636;52.610;13.244;2023-06-10T17:24:41;27.40;48.90
41944;DHT22;27636;52.610;13.244;2023-06-10T17:29:46;27.30;49.00
41944;DHT22;27636;52.610;13.244;2023-06-10T17:34:49;27.30;48.70
41944;DHT22;27636;52.610;13.244;2023-06-10T17:39:53;27.10;48.70
41944;DHT22;27636;52.610;13.244;2023-06-10T17:44:57;27.20;49.00
41944;DHT22;27636;52.610;13.244;2023-06-10T17:50:01;26.80;49.20
41944;DHT22;27636;52.610;13.244;2023-06-10T17:55:05;26.60;49.40
41944;DHT22;27636;52.610;13.244;2023-06-10T18:00:10;26.50;49.80
41944;DHT22;27636;52.610;13.244;2023-06-10T18:05:14;26.10;51.30
41944;DHT22;27636;52.610;13.244;2023-06-10T18:10:19;25.50;54.00
41944;DHT22;27636;52.610;13.244;2023-06-10T18:15:26;24.80;56.10
41944;DHT22;27636;52.610;13.244;2023-06-10T18:20:29;24.30;61.40
41944;DHT22;27636;52.610;13.244;2023-06-10T18:25:33;23.80;64.20
41944;DHT22;27636;52.610;13.244;2023-06-10T18:30:38;23.40;65.10
41944;DHT22;27636;52.610;13.244;2023-06-10T18:35:42;23.10;66.20
41944;DHT22;27636;52.610;13.244;2023-06-10T18:40:46;23.20;62.10
41944;DHT22;27636;52.610;13.244;2023-06-10T18:45:52;23.30;62.40
41944;DHT22;27636;52.610;13.244;2023-06-10T18:50:55;23.50;60.90
41944;DHT22;27636;52.610;13.244;2023-06-10T18:55:59;23.70;62.40
41944;DHT22;27636;52.610;13.244;2023-06-10T19:01:07;23.80;62.90
41944;DHT22;27636;52.610;13.244;2023-06-10T19:06:11;24.00;63.00
41944;DHT22;27636;52.610;13.244;2023-06-10T19:11:14;23.70;64.70
41944;DHT22;27636;52.610;13.244;2023-06-10T19:16:19;23.40;66.30
41944;DHT22;27636;52.610;13.244;2023-06-10T19:21:23;23.20;68.10
41944;DHT22;27636;52.610;13.244;2023-06-10T19:32:19;23.20;68.00
41944;DHT22;27636;52.610;13.244;2023-06-10T19:43:23;23.10;69.50
41944;DHT22;27636;52.610;13.244;2023-06-10T19:48:28;22.90;69.50
41944;DHT22;27636;52.610;13.244;2023-06-10T19:53:32;22.90;69.50
41944;DHT22;27636;52.610;13.244;2023-06-10T19:58:35;22.90;69.60
41944;DHT22;27636;52.610;13.244;2023-06-10T20:03:40;22.70;69.30
41944;DHT22;27636;52.610;13.244;2023-06-10T20:08:43;22.50;70.10
41944;DHT22;27636;52.610;13.244;2023-06-10T20:13:46;22.40;70.20
41944;DHT22;27636;52.610;13.244;2023-06-10T20:18:51;22.30;69.70
41944;DHT22;27636;52.610;13.244;2023-06-10T20:23:55;22.20;70.10
41944;DHT22;27636;52.610;13.244;2023-06-10T20:28:58;22.10;69.00
41944;DHT22;27636;52.610;13.244;2023-06-10T20:34:03;21.90;68.60
41944;DHT22;27636;52.610;13.244;2023-06-10T20:39:07;21.90;68.30
41944;DHT22;27636;52.610;13.244;2023-06-10T20:44:11;21.90;67.90
41944;DHT22;27636;52.610;13.244;2023-06-10T20:49:18;21.70;67.70
41944;DHT22;27636;52.610;13.244;2023-06-10T20:54:21;21.50;68.60
41944;DHT22;27636;52.610;13.244;2023-06-10T20:59:25;21.30;67.90
41944;DHT22;27636;52.610;13.244;2023-06-10T21:04:30;21.30;67.40
41944;DHT22;27636;52.610;13.244;2023-06-10T21:09:33;21.20;67.40
41944;DHT22;27636;52.610;13.244;2023-06-10T21:14:37;21.20;67.50
41944;DHT22;27636;52.610;13.244;2023-06-10T21:19:42;21.10;67.40
41944;DHT22;27636;52.610;13.244;2023-06-10T21:24:46;20.90;68.30
41944;DHT22;27636;52.610;13.244;2023-06-10T21:29:55;20.80;68.30
41944;DHT22;27636;52.610;13.244;2023-06-10T21:42:14;20.60;68.60
41944;DHT22;27636;52.610;13.244;2023-06-10T21:47:17;20.40;69.50
41944;DHT22;27636;52.610;13.244;2023-06-10T21:52:21;20.10;70.00
41944;DHT22;27636;52.610;13.244;2023-06-10T21:57:26;20.00;70.30
41944;DHT22;27636;52.610;13.244;2023-06-10T22:02:30;19.80;71.30
41944;DHT22;27636;52.610;13.244;2023-06-10T22:07:33;19.70;71.10
41944;DHT22;27636;52.610;13.244;2023-06-10T22:12:38;19.60;71.70
41944;DHT22;27636;52.610;13.244;2023-06-10T22:17:42;19.40;72.20
41944;DHT22;27636;52.610;13.244;2023-06-10T22:22:47;19.20;73.10
41944;DHT22;27636;52.610;13.244;2023-06-10T22:27:51;19.00;73.80
41944;DHT22;27636;52.610;13.244;2023-06-10T22:32:55;19.00;73.60
41944;DHT22;27636;52.610;13.244;2023-06-10T22:37:58;18.70;75.30
41944;DHT22;27636;52.610;13.244;2023-06-10T22:43:03;18.50;75.40
41944;DHT22;27636;52.610;13.244;2023-06-10T22:48:07;18.30;76.80
41944;DHT22;27636;52.610;13.244;2023-06-10T22:53:11;18.10;76.50
41944;DHT22;27636;52.610;13.244;2023-06-10T22:58:15;18.20;77.40
41944;DHT22;27636;52.610;13.244;2023-06-10T23:03:23;18.00;76.80
41944;DHT22;27636;52.610;13.244;2023-06-10T23:08:26;17.90;78.40
41944;DHT22;27636;52.610;13.244;2023-06-10T23:13:31;17.80;78.60
41944;DHT22;27636;52.610;13.244;2023-06-10T23:18:34;17.70;78.20
41944;DHT22;27636;52.610;13.244;2023-06-10T23:23:38;17.60;78.80
41944;DHT22;27636;52.610;13.244;2023-06-10T23:28:43;17.40;80.20
41944;DHT22;27636;52.610;13.244;2023-06-10T23:33:46;17.30;81.20
41944;DHT22;27636;52.610;13.244;2023-06-10T23:38:52;17.00;82.10
41944;DHT22;27636;52.610;13.244;2023-06-10T23:43:57;16.60;85.00
41944;DHT22;27636;52.610;13.244;2023-06-10T23:49:01;16.50;85.60
41944;DHT22;27636;52.610;13.244;2023-06-10T23:54:04;16.30;87.20
41944;DHT22;27636;52.610;13.244;2023-06-10T23:59:09;16.00;90.30
